sensor_id;sensor_type;location;lat;lon;timestamp;temperature;humidity
4697;DHT22;2362;50.780;0.292;2024-01-30T00:01:36;10.90;96.20
4697;DHT22;2362;50.780;0.292;2024-01-30T00:04:03;10.90;96.10
4697;DHT22;2362;50.780;0.292;2024-01-30T00:06:28;10.90;95.90
4697;DHT22;2362;50.780;0.292;2024-01-30T00:08:54;11.00;95.80
4697;DHT22;2362;50.780;0.292;2024-01-30T00:11:20;11.10;95.80
4697;DHT22;2362;50.780;0.292;2024-01-30T00:13:46;11.10;95.70
4697;DHT22;2362;50.780;0.292;2024-01-30T00:16:22;11.10;95.60
4697;DHT22;2362;50.780;0.292;2024-01-30T00:18:50;11.10;95.50
4697;DHT22;2362;50.780;0.292;2024-01-30T00:21:15;11.20;95.50
4697;DHT22;2362;50.780;0.292;2024-01-30T00:23:41;11.20;95.50
4697;DHT22;2362;50.780;0.292;2024-01-30T00:26:07;11.30;95.40
4697;DHT22;2362;50.780;0.292;2024-01-30T00:28:32;11.30;95.30
4697;DHT22;2362;50.780;0.292;2024-01-30T00:30:58;11.40;95.30
4697;DHT22;2362;50.780;0.292;2024-01-30T00:33:24;11.40;95.30
4697;DHT22;2362;50.780;0.292;2024-01-30T00:35:49;11.40;95.20
4697;DHT22;2362;50.780;0.292;2024-01-30T00:38:15;11.50;95.10
4697;DHT22;2362;50.780;0.292;2024-01-30T00:40:41;11.50;95.00
4697;DHT22;2362;50.780;0.292;2024-01-30T00:43:06;11.60;95.00
4697;DHT22;2362;50.780;0.292;2024-01-30T00:45:32;11.60;95.00
4697;DHT22;2362;50.780;0.292;2024-01-30T00:47:57;11.60;94.90
4697;DHT22;2362;50.780;0.292;2024-01-30T00:50:23;11.60;95.00
4697;DHT22;2362;50.780;0.292;2024-01-30T00:52:49;11.50;95.00
4697;DHT22;2362;50.780;0.292;2024-01-30T00:55:14;11.50;95.20
4697;DHT22;2362;50.780;0.292;2024-01-30T00:57:40;11.50;95.10
4697;DHT22;2362;50.780;0.292;2024-01-30T01:00:07;11.50;95.10
4697;DHT22;2362;50.780;0.292;2024-01-30T01:02:34;11.50;95.20
4697;DHT22;2362;50.780;0.292;2024-01-30T01:05:03;11.50;95.30
4697;DHT22;2362;50.780;0.292;2024-01-30T01:07:29;11.50;95.30
4697;DHT22;2362;50.780;0.292;2024-01-30T01:09:54;11.50;95.20
4697;DHT22;2362;50.780;0.292;2024-01-30T01:12:20;11.50;95.20
4697;DHT22;2362;50.780;0.292;2024-01-30T01:14:45;11.50;95.20
4697;DHT22;2362;50.780;0.292;2024-01-30T01:17:12;11.50;95.20
4697;DHT22;2362;50.780;0.292;2024-01-30T01:19:37;11.50;95.20
4697;DHT22;2362;50.780;0.292;2024-01-30T01:22:03;11.40;95.30
4697;DHT22;2362;50.780;0.292;2024-01-30T01:24:31;11.40;95.30
4697;DHT22;2362;50.780;0.292;2024-01-30T01:26:58;11.40;95.50
4697;DHT22;2362;50.780;0.292;2024-01-30T01:29:24;11.40;95.50
4697;DHT22;2362;50.780;0.292;2024-01-30T01:31:55;11.40;95.60
4697;DHT22;2362;50.780;0.292;2024-01-30T01:34:21;11.40;95.70
4697;DHT22;2362;50.780;0.292;2024-01-30T01:36:47;11.40;95.70
4697;DHT22;2362;50.780;0.292;2024-01-30T01:39:12;11.40;95.70
4697;DHT22;2362;50.780;0.292;2024-01-30T01:41:38;11.40;95.70
4697;DHT22;2362;50.780;0.292;2024-01-30T01:44:04;11.30;95.70
4697;DHT22;2362;50.780;0.292;2024-01-30T01:46:32;11.30;95.80
4697;DHT22;2362;50.780;0.292;2024-01-30T01:48:58;11.30;95.90
4697;DHT22;2362;50.780;0.292;2024-01-30T01:51:27;11.20;96.00
4697;DHT22;2362;50.780;0.292;2024-01-30T01:53:57;11.20;96.10
4697;DHT22;2362;50.780;0.292;2024-01-30T01:56:24;11.10;96.10
4697;DHT22;2362;50.780;0.292;2024-01-30T01:58:54;10.90;96.10
4697;DHT22;2362;50.780;0.292;2024-01-30T02:01:20;10.80;96.30
4697;DHT22;2362;50.780;0.292;2024-01-30T02:03:47;10.80;96.20
4697;DHT22;2362;50.780;0.292;2024-01-30T02:06:16;10.70;96.20
4697;DHT22;2362;50.780;0.292;2024-01-30T02:08:42;10.60;96.20
4697;DHT22;2362;50.780;0.292;2024-01-30T02:11:07;10.60;96.30
4697;DHT22;2362;50.780;0.292;2024-01-30T02:13:34;10.50;96.30
4697;DHT22;2362;50.780;0.292;2024-01-30T02:16:00;10.50;96.40
4697;DHT22;2362;50.780;0.292;2024-01-30T02:18:26;10.40;96.50
4697;DHT22;2362;50.780;0.292;2024-01-30T02:20:54;10.30;96.60
4697;DHT22;2362;50.780;0.292;2024-01-30T02:23:20;10.30;96.70
4697;DHT22;2362;50.780;0.292;2024-01-30T02:25:46;10.30;96.70
4697;DHT22;2362;50.780;0.292;2024-01-30T02:28:15;10.20;96.60
4697;DHT22;2362;50.780;0.292;2024-01-30T02:30:43;10.20;96.60
4697;DHT22;2362;50.780;0.292;2024-01-30T02:33:09;10.20;96.50
4697;DHT22;2362;50.780;0.292;2024-01-30T02:35:34;10.10;96.50
4697;DHT22;2362;50.780;0.292;2024-01-30T02:38:01;10.10;96.40
4697;DHT22;2362;50.780;0.292;2024-01-30T02:40:26;10.10;96.40
4697;DHT22;2362;50.780;0.292;2024-01-30T02:42:52;10.00;96.10
4697;DHT22;2362;50.780;0.292;2024-01-30T02:45:18;10.00;95.70
4697;DHT22;2362;50.780;0.292;2024-01-30T02:47:43;10.00;95.40
4697;DHT22;2362;50.780;0.292;2024-01-30T02:50:09;10.00;95.30
4697;DHT22;2362;50.780;0.292;2024-01-30T02:52:35;9.90;95.30
4697;DHT22;2362;50.780;0.292;2024-01-30T02:55:01;9.90;95.30
4697;DHT22;2362;50.780;0.292;2024-01-30T02:57:28;10.00;95.30
4697;DHT22;2362;50.780;0.292;2024-01-30T02:59:53;10.00;95.20
4697;DHT22;2362;50.780;0.292;2024-01-30T03:02:19;10.10;95.20
4697;DHT22;2362;50.780;0.292;2024-01-30T03:04:45;10.10;95.00
4697;DHT22;2362;50.780;0.292;2024-01-30T03:07:11;10.10;94.70
4697;DHT22;2362;50.780;0.292;2024-01-30T03:09:37;10.10;94.70
4697;DHT22;2362;50.780;0.292;2024-01-30T03:12:03;10.10;94.70
4697;DHT22;2362;50.780;0.292;2024-01-30T03:14:31;10.10;94.90
4697;DHT22;2362;50.780;0.292;2024-01-30T03:16:57;10.10;95.20
4697;DHT22;2362;50.780;0.292;2024-01-30T03:19:23;10.00;95.30
4697;DHT22;2362;50.780;0.292;2024-01-30T03:21:49;10.00;95.30
4697;DHT22;2362;50.780;0.292;2024-01-30T03:24:15;10.00;95.10
4697;DHT22;2362;50.780;0.292;2024-01-30T03:26:40;10.00;95.20
4697;DHT22;2362;50.780;0.292;2024-01-30T03:29:06;10.00;95.10
4697;DHT22;2362;50.780;0.292;2024-01-30T03:31:31;9.90;95.10
4697;DHT22;2362;50.780;0.292;2024-01-30T03:33:57;9.90;95.10
4697;DHT22;2362;50.780;0.292;2024-01-30T03:36:23;9.90;95.20
4697;DHT22;2362;50.780;0.292;2024-01-30T03:38:49;9.90;95.00
4697;DHT22;2362;50.780;0.292;2024-01-30T03:41:15;9.90;95.00
4697;DHT22;2362;50.780;0.292;2024-01-30T03:43:40;9.90;95.10
4697;DHT22;2362;50.780;0.292;2024-01-30T03:46:06;9.90;95.20
4697;DHT22;2362;50.780;0.292;2024-01-30T03:48:32;9.90;95.00
4697;DHT22;2362;50.780;0.292;2024-01-30T03:50:58;9.90;95.10
4697;DHT22;2362;50.780;0.292;2024-01-30T03:53:24;9.90;95.40
4697;DHT22;2362;50.780;0.292;2024-01-30T03:55:50;9.80;95.70
4697;DHT22;2362;50.780;0.292;2024-01-30T03:58:15;9.80;95.80
4697;DHT22;2362;50.780;0.292;2024-01-30T04:00:41;9.80;95.70
4697;DHT22;2362;50.780;0.292;2024-01-30T04:03:06;9.80;95.60
4697;DHT22;2362;50.780;0.292;2024-01-30T04:05:32;9.80;95.60
4697;DHT22;2362;50.780;0.292;2024-01-30T04:07:58;9.80;95.40
4697;DHT22;2362;50.780;0.292;2024-01-30T04:10:24;9.80;95.30
4697;DHT22;2362;50.780;0.292;2024-01-30T04:12:53;9.90;95.30
4697;DHT22;2362;50.780;0.292;2024-01-30T04:15:19;9.80;95.40
4697;DHT22;2362;50.780;0.292;2024-01-30T04:17:45;9.80;96.10
4697;DHT22;2362;50.780;0.292;2024-01-30T04:20:14;9.80;95.80
4697;DHT22;2362;50.780;0.292;2024-01-30T04:22:44;9.70;95.70
4697;DHT22;2362;50.780;0.292;2024-01-30T04:25:11;9.70;95.70
4697;DHT22;2362;50.780;0.292;2024-01-30T04:27:36;9.70;95.80
4697;DHT22;2362;50.780;0.292;2024-01-30T04:30:02;9.70;95.90
4697;DHT22;2362;50.780;0.292;2024-01-30T04:32:29;9.70;96.10
4697;DHT22;2362;50.780;0.292;2024-01-30T04:34:55;9.70;96.10
4697;DHT22;2362;50.780;0.292;2024-01-30T04:37:20;9.70;96.30
4697;DHT22;2362;50.780;0.292;2024-01-30T04:39:46;9.60;96.50
4697;DHT22;2362;50.780;0.292;2024-01-30T04:42:12;9.50;96.90
4697;DHT22;2362;50.780;0.292;2024-01-30T04:44:37;9.50;97.20
4697;DHT22;2362;50.780;0.292;2024-01-30T04:47:03;9.50;97.10
4697;DHT22;2362;50.780;0.292;2024-01-30T04:49:30;9.50;96.90
4697;DHT22;2362;50.780;0.292;2024-01-30T04:51:56;9.40;97.10
4697;DHT22;2362;50.780;0.292;2024-01-30T04:54:22;9.40;96.80
4697;DHT22;2362;50.780;0.292;2024-01-30T04:56:47;9.40;96.70
4697;DHT22;2362;50.780;0.292;2024-01-30T04:59:13;9.30;96.70
4697;DHT22;2362;50.780;0.292;2024-01-30T05:01:39;9.30;96.20
4697;DHT22;2362;50.780;0.292;2024-01-30T05:04:07;9.20;95.60
4697;DHT22;2362;50.780;0.292;2024-01-30T05:06:33;9.30;95.60
4697;DHT22;2362;50.780;0.292;2024-01-30T05:08:58;9.20;95.60
4697;DHT22;2362;50.780;0.292;2024-01-30T05:11:24;9.20;95.60
4697;DHT22;2362;50.780;0.292;2024-01-30T05:13:50;9.30;95.70
4697;DHT22;2362;50.780;0.292;2024-01-30T05:16:16;9.30;95.60
4697;DHT22;2362;50.780;0.292;2024-01-30T05:18:41;9.30;95.60
4697;DHT22;2362;50.780;0.292;2024-01-30T05:21:07;9.30;95.70
4697;DHT22;2362;50.780;0.292;2024-01-30T05:23:32;9.30;95.60
4697;DHT22;2362;50.780;0.292;2024-01-30T05:25:58;9.30;95.60
4697;DHT22;2362;50.780;0.292;2024-01-30T05:28:26;9.30;95.50
4697;DHT22;2362;50.780;0.292;2024-01-30T05:30:52;9.30;95.60
4697;DHT22;2362;50.780;0.292;2024-01-30T05:33:17;9.30;95.20
4697;DHT22;2362;50.780;0.292;2024-01-30T05:35:43;9.30;94.90
4697;DHT22;2362;50.780;0.292;2024-01-30T05:38:09;9.20;95.00
4697;DHT22;2362;50.780;0.292;2024-01-30T05:40:34;9.20;95.00
4697;DHT22;2362;50.780;0.292;2024-01-30T05:43:00;9.20;94.70
4697;DHT22;2362;50.780;0.292;2024-01-30T05:45:28;9.20;94.60
4697;DHT22;2362;50.780;0.292;2024-01-30T05:47:54;9.20;94.50
4697;DHT22;2362;50.780;0.292;2024-01-30T05:50:19;9.20;93.80
4697;DHT22;2362;50.780;0.292;2024-01-30T05:52:45;9.20;93.70
4697;DHT22;2362;50.780;0.292;2024-01-30T05:55:12;9.10;93.50
4697;DHT22;2362;50.780;0.292;2024-01-30T05:57:38;9.10;93.20
4697;DHT22;2362;50.780;0.292;2024-01-30T06:00:05;9.10;93.20
4697;DHT22;2362;50.780;0.292;2024-01-30T06:02:31;9.00;93.10
4697;DHT22;2362;50.780;0.292;2024-01-30T06:04:57;9.00;93.10
4697;DHT22;2362;50.780;0.292;2024-01-30T06:07:23;9.00;93.20
4697;DHT22;2362;50.780;0.292;2024-01-30T06:09:49;9.00;93.50
4697;DHT22;2362;50.780;0.292;2024-01-30T06:12:14;9.00;93.50
4697;DHT22;2362;50.780;0.292;2024-01-30T06:14:41;9.00;93.50
4697;DHT22;2362;50.780;0.292;2024-01-30T06:17:08;9.00;93.60
4697;DHT22;2362;50.780;0.292;2024-01-30T06:19:34;9.00;93.60
4697;DHT22;2362;50.780;0.292;2024-01-30T06:22:00;9.00;93.30
4697;DHT22;2362;50.780;0.292;2024-01-30T06:24:26;9.00;93.10
4697;DHT22;2362;50.780;0.292;2024-01-30T06:26:53;9.00;92.70
4697;DHT22;2362;50.780;0.292;2024-01-30T06:29:18;9.10;92.70
4697;DHT22;2362;50.780;0.292;2024-01-30T06:31:44;9.10;92.80
4697;DHT22;2362;50.780;0.292;2024-01-30T06:34:10;9.10;93.00
4697;DHT22;2362;50.780;0.292;2024-01-30T06:36:37;9.10;93.00
4697;DHT22;2362;50.780;0.292;2024-01-30T06:39:04;9.10;92.70
4697;DHT22;2362;50.780;0.292;2024-01-30T06:41:30;9.10;92.80
4697;DHT22;2362;50.780;0.292;2024-01-30T06:43:58;9.20;92.70
4697;DHT22;2362;50.780;0.292;2024-01-30T06:46:24;9.20;92.80
4697;DHT22;2362;50.780;0.292;2024-01-30T06:48:50;9.10;92.80
4697;DHT22;2362;50.780;0.292;2024-01-30T06:51:15;9.10;92.80
4697;DHT22;2362;50.780;0.292;2024-01-30T06:53:41;9.20;92.70
4697;DHT22;2362;50.780;0.292;2024-01-30T06:56:07;9.10;92.70
4697;DHT22;2362;50.780;0.292;2024-01-30T06:58:33;9.10;92.50
4697;DHT22;2362;50.780;0.292;2024-01-30T07:00:58;9.10;92.30
4697;DHT22;2362;50.780;0.292;2024-01-30T07:03:24;9.10;92.20
4697;DHT22;2362;50.780;0.292;2024-01-30T07:05:50;9.10;92.10
4697;DHT22;2362;50.780;0.292;2024-01-30T07:08:16;9.10;92.40
4697;DHT22;2362;50.780;0.292;2024-01-30T07:10:44;9.10;91.90
4697;DHT22;2362;50.780;0.292;2024-01-30T07:13:11;9.00;92.00
4697;DHT22;2362;50.780;0.292;2024-01-30T07:15:36;9.00;91.70
4697;DHT22;2362;50.780;0.292;2024-01-30T07:18:03;9.00;91.40
4697;DHT22;2362;50.780;0.292;2024-01-30T07:20:30;9.00;91.50
4697;DHT22;2362;50.780;0.292;2024-01-30T07:22:58;8.90;91.30
4697;DHT22;2362;50.780;0.292;2024-01-30T07:25:23;8.90;91.30
4697;DHT22;2362;50.780;0.292;2024-01-30T07:27:52;8.80;91.30
4697;DHT22;2362;50.780;0.292;2024-01-30T07:30:21;8.80;91.20
4697;DHT22;2362;50.780;0.292;2024-01-30T07:32:48;8.80;91.10
4697;DHT22;2362;50.780;0.292;2024-01-30T07:35:14;8.90;91.50
4697;DHT22;2362;50.780;0.292;2024-01-30T07:37:40;8.80;91.40
4697;DHT22;2362;50.780;0.292;2024-01-30T07:40:06;8.90;91.40
4697;DHT22;2362;50.780;0.292;2024-01-30T07:42:32;8.80;91.30
4697;DHT22;2362;50.780;0.292;2024-01-30T07:44:59;8.80;91.50
4697;DHT22;2362;50.780;0.292;2024-01-30T07:47:25;8.80;91.70
4697;DHT22;2362;50.780;0.292;2024-01-30T07:49:51;8.80;91.90
4697;DHT22;2362;50.780;0.292;2024-01-30T07:52:16;8.80;91.90
4697;DHT22;2362;50.780;0.292;2024-01-30T07:54:42;8.70;91.80
4697;DHT22;2362;50.780;0.292;2024-01-30T07:57:08;8.80;91.90
4697;DHT22;2362;50.780;0.292;2024-01-30T07:59:33;8.70;91.80
4697;DHT22;2362;50.780;0.292;2024-01-30T08:01:59;8.70;91.60
4697;DHT22;2362;50.780;0.292;2024-01-30T08:04:25;8.70;91.50
4697;DHT22;2362;50.780;0.292;2024-01-30T08:06:50;8.70;91.50
4697;DHT22;2362;50.780;0.292;2024-01-30T08:09:16;8.70;91.20
4697;DHT22;2362;50.780;0.292;2024-01-30T08:11:41;8.70;91.20
4697;DHT22;2362;50.780;0.292;2024-01-30T08:14:07;8.80;91.30
4697;DHT22;2362;50.780;0.292;2024-01-30T08:16:33;8.70;91.20
4697;DHT22;2362;50.780;0.292;2024-01-30T08:18:58;8.70;91.10
4697;DHT22;2362;50.780;0.292;2024-01-30T08:21:24;8.80;91.20
4697;DHT22;2362;50.780;0.292;2024-01-30T08:23:50;8.80;91.00
4697;DHT22;2362;50.780;0.292;2024-01-30T08:26:16;8.80;91.10
4697;DHT22;2362;50.780;0.292;2024-01-30T08:28:42;8.80;91.50
4697;DHT22;2362;50.780;0.292;2024-01-30T08:31:10;8.80;91.30
4697;DHT22;2362;50.780;0.292;2024-01-30T08:33:37;8.80;91.20
4697;DHT22;2362;50.780;0.292;2024-01-30T08:36:03;8.70;91.30
4697;DHT22;2362;50.780;0.292;2024-01-30T08:38:28;8.80;90.90
4697;DHT22;2362;50.780;0.292;2024-01-30T08:40:55;8.80;90.80
4697;DHT22;2362;50.780;0.292;2024-01-30T08:43:20;8.70;90.60
4697;DHT22;2362;50.780;0.292;2024-01-30T08:45:46;8.70;90.70
4697;DHT22;2362;50.780;0.292;2024-01-30T08:48:12;8.80;90.50
4697;DHT22;2362;50.780;0.292;2024-01-30T08:50:37;8.80;90.10
4697;DHT22;2362;50.780;0.292;2024-01-30T08:53:04;8.70;90.00
4697;DHT22;2362;50.780;0.292;2024-01-30T08:55:30;8.70;89.00
4697;DHT22;2362;50.780;0.292;2024-01-30T08:57:55;8.80;88.90
4697;DHT22;2362;50.780;0.292;2024-01-30T09:00:21;8.70;89.50
4697;DHT22;2362;50.780;0.292;2024-01-30T09:02:47;8.70;90.00
4697;DHT22;2362;50.780;0.292;2024-01-30T09:05:12;8.70;89.70
4697;DHT22;2362;50.780;0.292;2024-01-30T09:07:38;8.70;89.60
4697;DHT22;2362;50.780;0.292;2024-01-30T09:10:04;8.80;89.80
4697;DHT22;2362;50.780;0.292;2024-01-30T09:12:30;8.80;89.90
4697;DHT22;2362;50.780;0.292;2024-01-30T09:14:56;8.80;89.70
4697;DHT22;2362;50.780;0.292;2024-01-30T09:17:21;8.80;89.00
4697;DHT22;2362;50.780;0.292;2024-01-30T09:19:47;8.80;89.10
4697;DHT22;2362;50.780;0.292;2024-01-30T09:22:12;8.80;89.80
4697;DHT22;2362;50.780;0.292;2024-01-30T09:24:39;8.80;89.50
4697;DHT22;2362;50.780;0.292;2024-01-30T09:27:05;8.90;88.90
4697;DHT22;2362;50.780;0.292;2024-01-30T09:29:31;8.90;89.10
4697;DHT22;2362;50.780;0.292;2024-01-30T09:31:59;8.80;89.50
4697;DHT22;2362;50.780;0.292;2024-01-30T09:34:25;8.90;90.00
4697;DHT22;2362;50.780;0.292;2024-01-30T09:36:51;8.90;90.50
4697;DHT22;2362;50.780;0.292;2024-01-30T09:39:16;8.90;90.30
4697;DHT22;2362;50.780;0.292;2024-01-30T09:42:18;8.90;90.10
4697;DHT22;2362;50.780;0.292;2024-01-30T09:44:47;8.90;88.80
4697;DHT22;2362;50.780;0.292;2024-01-30T09:47:18;8.90;89.40
4697;DHT22;2362;50.780;0.292;2024-01-30T09:49:44;8.90;89.90
4697;DHT22;2362;50.780;0.292;2024-01-30T09:52:09;8.90;90.20
4697;DHT22;2362;50.780;0.292;2024-01-30T09:54:36;8.90;90.40
4697;DHT22;2362;50.780;0.292;2024-01-30T09:57:04;8.90;90.70
4697;DHT22;2362;50.780;0.292;2024-01-30T09:59:30;8.90;90.70
4697;DHT22;2362;50.780;0.292;2024-01-30T10:01:57;8.90;90.30
4697;DHT22;2362;50.780;0.292;2024-01-30T10:04:22;8.90;90.30
4697;DHT22;2362;50.780;0.292;2024-01-30T10:06:48;8.90;90.30
4697;DHT22;2362;50.780;0.292;2024-01-30T10:09:14;9.00;90.10
4697;DHT22;2362;50.780;0.292;2024-01-30T10:11:40;9.00;90.30
4697;DHT22;2362;50.780;0.292;2024-01-30T10:14:06;9.00;90.00
4697;DHT22;2362;50.780;0.292;2024-01-30T10:16:31;9.10;89.50
4697;DHT22;2362;50.780;0.292;2024-01-30T10:18:57;9.00;90.00
4697;DHT22;2362;50.780;0.292;2024-01-30T10:21:23;9.00;90.00
4697;DHT22;2362;50.780;0.292;2024-01-30T10:23:49;9.10;90.00
4697;DHT22;2362;50.780;0.292;2024-01-30T10:26:18;9.20;90.00
4697;DHT22;2362;50.780;0.292;2024-01-30T10:28:44;9.10;89.80
4697;DHT22;2362;50.780;0.292;2024-01-30T10:31:10;9.20;88.80
4697;DHT22;2362;50.780;0.292;2024-01-30T10:33:35;9.10;89.40
4697;DHT22;2362;50.780;0.292;2024-01-30T10:36:03;9.10;89.30
4697;DHT22;2362;50.780;0.292;2024-01-30T10:38:29;9.20;89.60
4697;DHT22;2362;50.780;0.292;2024-01-30T10:41:00;9.10;89.40
4697;DHT22;2362;50.780;0.292;2024-01-30T10:43:35;9.20;89.70
4697;DHT22;2362;50.780;0.292;2024-01-30T10:46:10;9.20;90.00
4697;DHT22;2362;50.780;0.292;2024-01-30T10:48:42;9.30;89.80
4697;DHT22;2362;50.780;0.292;2024-01-30T10:51:10;9.30;89.50
4697;DHT22;2362;50.780;0.292;2024-01-30T10:53:37;9.30;89.90
4697;DHT22;2362;50.780;0.292;2024-01-30T10:56:03;9.30;89.70
4697;DHT22;2362;50.780;0.292;2024-01-30T10:58:29;9.20;90.00
4697;DHT22;2362;50.780;0.292;2024-01-30T11:00:55;9.20;89.60
4697;DHT22;2362;50.780;0.292;2024-01-30T11:03:22;9.30;89.70
4697;DHT22;2362;50.780;0.292;2024-01-30T11:05:52;9.30;89.90
4697;DHT22;2362;50.780;0.292;2024-01-30T11:08:24;9.30;89.00
4697;DHT22;2362;50.780;0.292;2024-01-30T11:10:55;9.30;89.50
4697;DHT22;2362;50.780;0.292;2024-01-30T11:13:22;9.30;89.00
4697;DHT22;2362;50.780;0.292;2024-01-30T11:15:48;9.40;89.70
4697;DHT22;2362;50.780;0.292;2024-01-30T11:18:26;9.30;89.60
4697;DHT22;2362;50.780;0.292;2024-01-30T11:20:51;9.30;90.20
4697;DHT22;2362;50.780;0.292;2024-01-30T11:23:17;9.30;90.30
4697;DHT22;2362;50.780;0.292;2024-01-30T11:25:46;9.30;90.10
4697;DHT22;2362;50.780;0.292;2024-01-30T11:28:15;9.30;90.00
4697;DHT22;2362;50.780;0.292;2024-01-30T11:30:42;9.30;90.10
4697;DHT22;2362;50.780;0.292;2024-01-30T11:33:13;9.30;90.20
4697;DHT22;2362;50.780;0.292;2024-01-30T11:35:43;9.30;90.20
4697;DHT22;2362;50.780;0.292;2024-01-30T11:38:10;9.30;90.00
4697;DHT22;2362;50.780;0.292;2024-01-30T11:40:39;9.30;90.10
4697;DHT22;2362;50.780;0.292;2024-01-30T11:43:07;9.30;90.00
4697;DHT22;2362;50.780;0.292;2024-01-30T11:45:34;9.30;89.60
4697;DHT22;2362;50.780;0.292;2024-01-30T11:48:00;9.30;89.50
4697;DHT22;2362;50.780;0.292;2024-01-30T11:50:29;9.40;89.60
4697;DHT22;2362;50.780;0.292;2024-01-30T11:52:55;9.40;89.30
4697;DHT22;2362;50.780;0.292;2024-01-30T11:55:20;9.40;89.30
4697;DHT22;2362;50.780;0.292;2024-01-30T11:57:46;9.40;90.00
4697;DHT22;2362;50.780;0.292;2024-01-30T12:00:16;9.50;89.20
4697;DHT22;2362;50.780;0.292;2024-01-30T12:02:43;9.50;88.90
4697;DHT22;2362;50.780;0.292;2024-01-30T12:05:09;9.40;88.70
4697;DHT22;2362;50.780;0.292;2024-01-30T12:07:35;9.40;88.50
4697;DHT22;2362;50.780;0.292;2024-01-30T12:10:01;9.40;88.80
4697;DHT22;2362;50.780;0.292;2024-01-30T12:12:28;9.40;88.10
4697;DHT22;2362;50.780;0.292;2024-01-30T12:14:57;9.30;88.30
4697;DHT22;2362;50.780;0.292;2024-01-30T12:19:50;9.40;88.60
4697;DHT22;2362;50.780;0.292;2024-01-30T12:22:15;9.40;88.50
4697;DHT22;2362;50.780;0.292;2024-01-30T12:24:41;9.40;88.10
4697;DHT22;2362;50.780;0.292;2024-01-30T12:27:07;9.30;88.20
4697;DHT22;2362;50.780;0.292;2024-01-30T12:29:33;9.30;88.40
4697;DHT22;2362;50.780;0.292;2024-01-30T12:31:59;9.30;87.70
4697;DHT22;2362;50.780;0.292;2024-01-30T12:34:25;9.30;87.30
4697;DHT22;2362;50.780;0.292;2024-01-30T12:36:51;9.30;88.00
4697;DHT22;2362;50.780;0.292;2024-01-30T12:39:17;9.20;87.80
4697;DHT22;2362;50.780;0.292;2024-01-30T12:41:42;9.20;88.30
4697;DHT22;2362;50.780;0.292;2024-01-30T12:44:08;9.20;88.30
4697;DHT22;2362;50.780;0.292;2024-01-30T12:46:36;9.20;88.00
4697;DHT22;2362;50.780;0.292;2024-01-30T12:49:02;9.20;87.40
4697;DHT22;2362;50.780;0.292;2024-01-30T12:51:28;9.20;87.40
4697;DHT22;2362;50.780;0.292;2024-01-30T12:53:54;9.20;87.50
4697;DHT22;2362;50.780;0.292;2024-01-30T12:56:20;9.10;87.60
4697;DHT22;2362;50.780;0.292;2024-01-30T12:58:45;9.10;87.80
4697;DHT22;2362;50.780;0.292;2024-01-30T13:01:11;9.10;88.40
4697;DHT22;2362;50.780;0.292;2024-01-30T13:03:36;9.10;88.00
4697;DHT22;2362;50.780;0.292;2024-01-30T13:06:02;9.10;88.50
4697;DHT22;2362;50.780;0.292;2024-01-30T13:08:28;9.10;88.10
4697;DHT22;2362;50.780;0.292;2024-01-30T13:10:54;9.10;88.00
4697;DHT22;2362;50.780;0.292;2024-01-30T13:13:19;9.00;87.90
4697;DHT22;2362;50.780;0.292;2024-01-30T13:15:45;9.00;88.10
4697;DHT22;2362;50.780;0.292;2024-01-30T13:18:10;9.00;88.80
4697;DHT22;2362;50.780;0.292;2024-01-30T13:20:36;9.00;88.90
4697;DHT22;2362;50.780;0.292;2024-01-30T13:23:01;9.00;88.50
4697;DHT22;2362;50.780;0.292;2024-01-30T13:25:27;9.00;89.20
4697;DHT22;2362;50.780;0.292;2024-01-30T13:27:53;9.00;88.90
4697;DHT22;2362;50.780;0.292;2024-01-30T13:30:19;9.00;89.00
4697;DHT22;2362;50.780;0.292;2024-01-30T13:32:45;9.00;89.00
4697;DHT22;2362;50.780;0.292;2024-01-30T13:35:11;9.00;89.20
4697;DHT22;2362;50.780;0.292;2024-01-30T13:37:37;8.90;89.10
4697;DHT22;2362;50.780;0.292;2024-01-30T13:40:05;8.90;89.50
4697;DHT22;2362;50.780;0.292;2024-01-30T13:42:38;8.90;89.60
4697;DHT22;2362;50.780;0.292;2024-01-30T13:45:04;8.90;89.70
4697;DHT22;2362;50.780;0.292;2024-01-30T13:47:30;8.90;89.10
4697;DHT22;2362;50.780;0.292;2024-01-30T13:49:56;8.90;89.60
4697;DHT22;2362;50.780;0.292;2024-01-30T13:52:22;8.90;89.90
4697;DHT22;2362;50.780;0.292;2024-01-30T13:54:47;8.90;89.70
4697;DHT22;2362;50.780;0.292;2024-01-30T13:57:13;8.90;89.80
4697;DHT22;2362;50.780;0.292;2024-01-30T13:59:39;8.90;89.70
4697;DHT22;2362;50.780;0.292;2024-01-30T14:02:06;8.90;89.70
4697;DHT22;2362;50.780;0.292;2024-01-30T14:04:33;8.90;89.50
4697;DHT22;2362;50.780;0.292;2024-01-30T14:06:59;8.90;89.70
4697;DHT22;2362;50.780;0.292;2024-01-30T14:09:25;8.90;89.70
4697;DHT22;2362;50.780;0.292;2024-01-30T14:11:50;8.90;89.80
4697;DHT22;2362;50.780;0.292;2024-01-30T14:14:16;8.90;89.80
4697;DHT22;2362;50.780;0.292;2024-01-30T14:16:42;8.90;90.00
4697;DHT22;2362;50.780;0.292;2024-01-30T14:19:07;8.90;89.80
4697;DHT22;2362;50.780;0.292;2024-01-30T14:21:33;8.90;90.00
4697;DHT22;2362;50.780;0.292;2024-01-30T14:23:58;8.90;90.00
4697;DHT22;2362;50.780;0.292;2024-01-30T14:26:24;8.90;90.10
4697;DHT22;2362;50.780;0.292;2024-01-30T14:28:50;8.90;90.30
4697;DHT22;2362;50.780;0.292;2024-01-30T14:31:15;8.80;90.20
4697;DHT22;2362;50.780;0.292;2024-01-30T14:33:44;8.90;90.10
4697;DHT22;2362;50.780;0.292;2024-01-30T14:36:09;8.80;90.00
4697;DHT22;2362;50.780;0.292;2024-01-30T14:38:35;8.80;90.00
4697;DHT22;2362;50.780;0.292;2024-01-30T14:41:00;8.80;89.90
4697;DHT22;2362;50.780;0.292;2024-01-30T14:43:26;8.80;90.00
4697;DHT22;2362;50.780;0.292;2024-01-30T14:45:52;8.90;90.10
4697;DHT22;2362;50.780;0.292;2024-01-30T14:48:17;8.80;90.10
4697;DHT22;2362;50.780;0.292;2024-01-30T14:50:43;8.80;90.10
4697;DHT22;2362;50.780;0.292;2024-01-30T14:53:09;8.80;90.10
4697;DHT22;2362;50.780;0.292;2024-01-30T14:55:34;8.80;90.10
4697;DHT22;2362;50.780;0.292;2024-01-30T14:58:00;8.80;90.30
4697;DHT22;2362;50.780;0.292;2024-01-30T15:00:27;8.80;90.10
4697;DHT22;2362;50.780;0.292;2024-01-30T15:02:53;8.80;90.00
4697;DHT22;2362;50.780;0.292;2024-01-30T15:05:19;8.80;90.10
4697;DHT22;2362;50.780;0.292;2024-01-30T15:07:44;8.80;90.00
4697;DHT22;2362;50.780;0.292;2024-01-30T15:10:10;8.80;90.00
4697;DHT22;2362;50.780;0.292;2024-01-30T15:12:36;8.80;90.20
4697;DHT22;2362;50.780;0.292;2024-01-30T15:15:03;8.80;90.10
4697;DHT22;2362;50.780;0.292;2024-01-30T15:17:29;8.80;90.10
4697;DHT22;2362;50.780;0.292;2024-01-30T15:19:54;8.80;90.40
4697;DHT22;2362;50.780;0.292;2024-01-30T15:22:20;8.80;90.30
4697;DHT22;2362;50.780;0.292;2024-01-30T15:24:46;8.80;90.40
4697;DHT22;2362;50.780;0.292;2024-01-30T15:27:11;8.80;90.30
4697;DHT22;2362;50.780;0.292;2024-01-30T15:29:37;8.80;90.40
4697;DHT22;2362;50.780;0.292;2024-01-30T15:32:03;8.80;90.40
4697;DHT22;2362;50.780;0.292;2024-01-30T15:34:29;8.80;90.40
4697;DHT22;2362;50.780;0.292;2024-01-30T15:36:55;8.80;90.40
4697;DHT22;2362;50.780;0.292;2024-01-30T15:39:20;8.80;90.20
4697;DHT22;2362;50.780;0.292;2024-01-30T15:41:46;8.80;90.30
4697;DHT22;2362;50.780;0.292;2024-01-30T15:44:12;8.80;90.30
4697;DHT22;2362;50.780;0.292;2024-01-30T15:46:37;8.80;90.40
4697;DHT22;2362;50.780;0.292;2024-01-30T15:49:03;8.70;90.10
4697;DHT22;2362;50.780;0.292;2024-01-30T15:51:29;8.80;90.00
4697;DHT22;2362;50.780;0.292;2024-01-30T15:53:55;8.80;89.80
4697;DHT22;2362;50.780;0.292;2024-01-30T15:56:21;8.80;89.40
4697;DHT22;2362;50.780;0.292;2024-01-30T15:58:47;8.80;89.40
4697;DHT22;2362;50.780;0.292;2024-01-30T16:01:15;8.80;89.40
4697;DHT22;2362;50.780;0.292;2024-01-30T16:03:42;8.80;89.40
4697;DHT22;2362;50.780;0.292;2024-01-30T16:06:16;8.80;89.30
4697;DHT22;2362;50.780;0.292;2024-01-30T16:08:42;8.80;89.10
4697;DHT22;2362;50.780;0.292;2024-01-30T16:11:08;8.80;89.30